sensor_id;sensor_type;location;lat;lon;timestamp;P1;durP1;ratioP1;P2;durP2;ratioP2
67544;SDS011;54380;47.770;11.150;2022-11-02T00:01:18;10.88;;;1.88;;
67544;SDS011;54380;47.770;11.150;2022-11-02T00:03:48;11.18;;;1.95;;
67544;SDS011;54380;47.770;11.150;2022-11-02T00:06:15;11.35;;;1.73;;
67544;SDS011;54380;47.770;11.150;2022-11-02T00:08:42;12.95;;;2.25;;
67544;SDS011;54380;47.770;11.150;2022-11-02T00:11:08;11.02;;;2.22;;
67544;SDS011;54380;47.770;11.150;2022-11-02T00:13:35;11.20;;;1.83;;
67544;SDS011;54380;47.770;11.150;2022-11-02T00:16:02;13.32;;;2.35;;
67544;SDS011;54380;47.770;11.150;2022-11-02T00:18:31;8.98;;;1.40;;
67544;SDS011;54380;47.770;11.150;2022-11-02T00:21:00;7.90;;;1.38;;
67544;SDS011;54380;47.770;11.150;2022-11-02T00:23:27;8.15;;;1.13;;
67544;SDS011;54380;47.770;11.150;2022-11-02T00:25:54;10.35;;;2.10;;
67544;SDS011;54380;47.770;11.150;2022-11-02T00:28:27;10.13;;;2.22;;
67544;SDS011;54380;47.770;11.150;2022-11-02T00:30:53;12.75;;;1.83;;
67544;SDS011;54380;47.770;11.150;2022-11-02T00:33:20;9.50;;;1.25;;
67544;SDS011;54380;47.770;11.150;2022-11-02T00:35:47;8.45;;;1.52;;
67544;SDS011;54380;47.770;11.150;2022-11-02T00:38:15;9.57;;;1.15;;
67544;SDS011;54380;47.770;11.150;2022-11-02T00:40:42;9.98;;;1.30;;
67544;SDS011;54380;47.770;11.150;2022-11-02T00:43:09;8.90;;;1.88;;
67544;SDS011;54380;47.770;11.150;2022-11-02T00:45:37;9.65;;;2.13;;
67544;SDS011;54380;47.770;11.150;2022-11-02T00:48:03;11.57;;;2.15;;
67544;SDS011;54380;47.770;11.150;2022-11-02T00:50:31;13.38;;;2.03;;
67544;SDS011;54380;47.770;11.150;2022-11-02T00:52:58;12.48;;;1.75;;
67544;SDS011;54380;47.770;11.150;2022-11-02T00:55:26;10.63;;;2.65;;
67544;SDS011;54380;47.770;11.150;2022-11-02T00:57:58;7.95;;;1.88;;
67544;SDS011;54380;47.770;11.150;2022-11-02T01:00:25;12.23;;;2.05;;
67544;SDS011;54380;47.770;11.150;2022-11-02T01:02:51;10.68;;;1.88;;
67544;SDS011;54380;47.770;11.150;2022-11-02T01:05:18;10.25;;;2.25;;
67544;SDS011;54380;47.770;11.150;2022-11-02T01:07:46;9.10;;;1.65;;
67544;SDS011;54380;47.770;11.150;2022-11-02T01:10:12;11.75;;;2.35;;
67544;SDS011;54380;47.770;11.150;2022-11-02T01:12:40;9.80;;;2.15;;
67544;SDS011;54380;47.770;11.150;2022-11-02T01:15:09;10.32;;;1.88;;
67544;SDS011;54380;47.770;11.150;2022-11-02T01:17:36;10.10;;;1.55;;
67544;SDS011;54380;47.770;11.150;2022-11-02T01:20:04;13.05;;;2.95;;
67544;SDS011;54380;47.770;11.150;2022-11-02T01:22:31;9.68;;;2.03;;
67544;SDS011;54380;47.770;11.150;2022-11-02T01:24:58;10.93;;;2.15;;
67544;SDS011;54380;47.770;11.150;2022-11-02T01:27:25;12.63;;;2.45;;
67544;SDS011;54380;47.770;11.150;2022-11-02T01:29:53;8.50;;;1.27;;
67544;SDS011;54380;47.770;11.150;2022-11-02T01:32:19;10.70;;;1.77;;
67544;SDS011;54380;47.770;11.150;2022-11-02T01:34:46;12.32;;;2.83;;
67544;SDS011;54380;47.770;11.150;2022-11-02T01:37:14;10.00;;;1.73;;
67544;SDS011;54380;47.770;11.150;2022-11-02T01:39:40;13.50;;;1.55;;
67544;SDS011;54380;47.770;11.150;2022-11-02T01:42:15;9.13;;;1.70;;
67544;SDS011;54380;47.770;11.150;2022-11-02T01:44:43;11.90;;;2.05;;
67544;SDS011;54380;47.770;11.150;2022-11-02T01:47:13;8.13;;;1.45;;
67544;SDS011;54380;47.770;11.150;2022-11-02T01:49:45;9.50;;;1.77;;
67544;SDS011;54380;47.770;11.150;2022-11-02T01:52:15;8.57;;;1.55;;
67544;SDS011;54380;47.770;11.150;2022-11-02T01:54:47;8.30;;;1.50;;
67544;SDS011;54380;47.770;11.150;2022-11-02T01:57:18;12.20;;;1.60;;
67544;SDS011;54380;47.770;11.150;2022-11-02T01:59:48;13.98;;;1.98;;
67544;SDS011;54380;47.770;11.150;2022-11-02T02:02:20;11.80;;;1.33;;
67544;SDS011;54380;47.770;11.150;2022-11-02T02:04:50;10.07;;;1.17;;
67544;SDS011;54380;47.770;11.150;2022-11-02T02:07:19;14.35;;;1.88;;
67544;SDS011;54380;47.770;11.150;2022-11-02T02:09:49;9.60;;;1.67;;
67544;SDS011;54380;47.770;11.150;2022-11-02T02:12:18;10.45;;;1.33;;
67544;SDS011;54380;47.770;11.150;2022-11-02T02:17:26;11.10;;;1.42;;
67544;SDS011;54380;47.770;11.150;2022-11-02T02:20:03;14.15;;;2.17;;
67544;SDS011;54380;47.770;11.150;2022-11-02T02:25:49;11.00;;;1.67;;
67544;SDS011;54380;47.770;11.150;2022-11-02T02:28:34;7.25;;;0.93;;
67544;SDS011;54380;47.770;11.150;2022-11-02T02:31:08;8.95;;;1.52;;
67544;SDS011;54380;47.770;11.150;2022-11-02T02:33:42;7.28;;;1.35;;
67544;SDS011;54380;47.770;11.150;2022-11-02T02:36:14;8.48;;;1.15;;
67544;SDS011;54380;47.770;11.150;2022-11-02T02:38:47;9.75;;;1.50;;
67544;SDS011;54380;47.770;11.150;2022-11-02T02:41:23;7.90;;;1.15;;
67544;SDS011;54380;47.770;11.150;2022-11-02T02:43:56;8.88;;;1.35;;
67544;SDS011;54380;47.770;11.150;2022-11-02T02:46:26;11.55;;;1.70;;
67544;SDS011;54380;47.770;11.150;2022-11-02T02:49:00;10.88;;;2.00;;
67544;SDS011;54380;47.770;11.150;2022-11-02T02:51:31;10.45;;;1.27;;
67544;SDS011;54380;47.770;11.150;2022-11-02T02:54:02;11.70;;;1.20;;
67544;SDS011;54380;47.770;11.150;2022-11-02T02:56:34;7.03;;;1.55;;
67544;SDS011;54380;47.770;11.150;2022-11-02T02:59:06;10.20;;;1.33;;
67544;SDS011;54380;47.770;11.150;2022-11-02T03:01:40;7.97;;;1.25;;
67544;SDS011;54380;47.770;11.150;2022-11-02T03:04:09;10.18;;;1.33;;
67544;SDS011;54380;47.770;11.150;2022-11-02T03:06:37;9.57;;;1.80;;
67544;SDS011;54380;47.770;11.150;2022-11-02T03:09:09;9.65;;;1.35;;
67544;SDS011;54380;47.770;11.150;2022-11-02T03:11:48;8.35;;;1.40;;
67544;SDS011;54380;47.770;11.150;2022-11-02T03:14:24;10.60;;;1.00;;
67544;SDS011;54380;47.770;11.150;2022-11-02T03:17:05;9.02;;;1.40;;
67544;SDS011;54380;47.770;11.150;2022-11-02T03:19:42;7.72;;;1.15;;
67544;SDS011;54380;47.770;11.150;2022-11-02T03:22:19;9.48;;;1.42;;
67544;SDS011;54380;47.770;11.150;2022-11-02T03:24:54;9.80;;;1.48;;
67544;SDS011;54380;47.770;11.150;2022-11-02T03:27:30;10.63;;;1.13;;
67544;SDS011;54380;47.770;11.150;2022-11-02T03:30:06;11.00;;;1.13;;
67544;SDS011;54380;47.770;11.150;2022-11-02T03:32:38;9.68;;;1.38;;
67544;SDS011;54380;47.770;11.150;2022-11-02T03:35:14;12.35;;;1.77;;
67544;SDS011;54380;47.770;11.150;2022-11-02T03:37:45;8.02;;;1.33;;
67544;SDS011;54380;47.770;11.150;2022-11-02T03:40:17;5.13;;;1.02;;
67544;SDS011;54380;47.770;11.150;2022-11-02T03:42:50;8.50;;;1.02;;
67544;SDS011;54380;47.770;11.150;2022-11-02T03:45:21;8.88;;;1.02;;
67544;SDS011;54380;47.770;11.150;2022-11-02T03:47:52;7.57;;;1.05;;
67544;SDS011;54380;47.770;11.150;2022-11-02T03:50:22;7.85;;;1.15;;
67544;SDS011;54380;47.770;11.150;2022-11-02T03:52:52;10.13;;;1.45;;
67544;SDS011;54380;47.770;11.150;2022-11-02T03:55:25;7.72;;;1.13;;
67544;SDS011;54380;47.770;11.150;2022-11-02T03:57:55;8.85;;;1.50;;
67544;SDS011;54380;47.770;11.150;2022-11-02T04:00:29;11.20;;;1.90;;
67544;SDS011;54380;47.770;11.150;2022-11-02T04:03:04;9.70;;;1.48;;
67544;SDS011;54380;47.770;11.150;2022-11-02T04:05:38;12.27;;;2.10;;
67544;SDS011;54380;47.770;11.150;2022-11-02T04:08:25;12.07;;;1.98;;
67544;SDS011;54380;47.770;11.150;2022-11-02T04:10:59;8.27;;;1.35;;
67544;SDS011;54380;47.770;11.150;2022-11-02T04:13:45;7.65;;;0.90;;
67544;SDS011;54380;47.770;11.150;2022-11-02T04:16:36;10.00;;;1.52;;
67544;SDS011;54380;47.770;11.150;2022-11-02T04:19:08;9.57;;;1.90;;
67544;SDS011;54380;47.770;11.150;2022-11-02T04:22:02;12.52;;;2.17;;
67544;SDS011;54380;47.770;11.150;2022-11-02T04:24:52;11.82;;;3.10;;
67544;SDS011;54380;47.770;11.150;2022-11-02T04:27:39;13.35;;;2.65;;
67544;SDS011;54380;47.770;11.150;2022-11-02T04:30:07;10.77;;;1.55;;
67544;SDS011;54380;47.770;11.150;2022-11-02T04:32:37;7.90;;;1.27;;
67544;SDS011;54380;47.770;11.150;2022-11-02T04:35:25;10.65;;;2.08;;
67544;SDS011;54380;47.770;11.150;2022-11-02T04:37:52;13.98;;;2.40;;
67544;SDS011;54380;47.770;11.150;2022-11-02T04:40:39;9.40;;;1.63;;
67544;SDS011;54380;47.770;11.150;2022-11-02T04:43:06;12.40;;;1.85;;
67544;SDS011;54380;47.770;11.150;2022-11-02T04:45:33;12.25;;;2.38;;
67544;SDS011;54380;47.770;11.150;2022-11-02T04:48:03;13.30;;;2.72;;
67544;SDS011;54380;47.770;11.150;2022-11-02T04:50:32;12.88;;;2.67;;
67544;SDS011;54380;47.770;11.150;2022-11-02T04:53:00;11.45;;;2.58;;
67544;SDS011;54380;47.770;11.150;2022-11-02T04:55:30;11.82;;;1.52;;
67544;SDS011;54380;47.770;11.150;2022-11-02T04:57:57;10.93;;;1.75;;
67544;SDS011;54380;47.770;11.150;2022-11-02T05:00:25;10.18;;;1.45;;
67544;SDS011;54380;47.770;11.150;2022-11-02T05:02:52;8.77;;;1.52;;
67544;SDS011;54380;47.770;11.150;2022-11-02T05:05:22;10.70;;;1.63;;
67544;SDS011;54380;47.770;11.150;2022-11-02T05:07:52;8.60;;;1.33;;
67544;SDS011;54380;47.770;11.150;2022-11-02T05:10:19;8.55;;;1.65;;
67544;SDS011;54380;47.770;11.150;2022-11-02T05:12:47;9.20;;;1.35;;
67544;SDS011;54380;47.770;11.150;2022-11-02T05:15:19;11.32;;;1.52;;
67544;SDS011;54380;47.770;11.150;2022-11-02T05:18:06;7.88;;;1.55;;
67544;SDS011;54380;47.770;11.150;2022-11-02T05:20:35;7.65;;;1.20;;
67544;SDS011;54380;47.770;11.150;2022-11-02T05:23:02;7.65;;;1.30;;
67544;SDS011;54380;47.770;11.150;2022-11-02T05:25:29;11.02;;;1.40;;
67544;SDS011;54380;47.770;11.150;2022-11-02T05:27:57;7.20;;;0.93;;
67544;SDS011;54380;47.770;11.150;2022-11-02T05:30:24;8.88;;;1.35;;
67544;SDS011;54380;47.770;11.150;2022-11-02T05:32:54;7.43;;;1.30;;
67544;SDS011;54380;47.770;11.150;2022-11-02T05:35:22;10.40;;;1.88;;
67544;SDS011;54380;47.770;11.150;2022-11-02T05:37:51;9.70;;;1.60;;
67544;SDS011;54380;47.770;11.150;2022-11-02T05:40:20;14.27;;;2.15;;
67544;SDS011;54380;47.770;11.150;2022-11-02T05:42:47;8.55;;;1.33;;
67544;SDS011;54380;47.770;11.150;2022-11-02T05:45:13;7.80;;;1.42;;
67544;SDS011;54380;47.770;11.150;2022-11-02T05:47:43;11.07;;;1.40;;
67544;SDS011;54380;47.770;11.150;2022-11-02T05:50:10;9.43;;;2.22;;
67544;SDS011;54380;47.770;11.150;2022-11-02T05:52:36;9.85;;;1.50;;
67544;SDS011;54380;47.770;11.150;2022-11-02T05:55:05;13.52;;;3.80;;
67544;SDS011;54380;47.770;11.150;2022-11-02T05:57:32;14.68;;;2.92;;
67544;SDS011;54380;47.770;11.150;2022-11-02T05:59:59;10.52;;;2.58;;
67544;SDS011;54380;47.770;11.150;2022-11-02T06:02:26;10.60;;;2.50;;
67544;SDS011;54380;47.770;11.150;2022-11-02T06:04:52;9.88;;;2.53;;
67544;SDS011;54380;47.770;11.150;2022-11-02T06:07:19;16.30;;;2.38;;
67544;SDS011;54380;47.770;11.150;2022-11-02T06:09:46;11.63;;;2.03;;
67544;SDS011;54380;47.770;11.150;2022-11-02T06:12:14;8.65;;;1.15;;
67544;SDS011;54380;47.770;11.150;2022-11-02T06:14:41;11.15;;;2.67;;
67544;SDS011;54380;47.770;11.150;2022-11-02T06:17:07;10.35;;;1.95;;
67544;SDS011;54380;47.770;11.150;2022-11-02T06:19:34;10.13;;;1.10;;
67544;SDS011;54380;47.770;11.150;2022-11-02T06:22:01;7.20;;;0.95;;
67544;SDS011;54380;47.770;11.150;2022-11-02T06:24:28;12.00;;;2.25;;
67544;SDS011;54380;47.770;11.150;2022-11-02T06:26:54;8.20;;;1.55;;
67544;SDS011;54380;47.770;11.150;2022-11-02T06:29:23;14.05;;;2.80;;
67544;SDS011;54380;47.770;11.150;2022-11-02T06:31:50;10.55;;;1.95;;
67544;SDS011;54380;47.770;11.150;2022-11-02T06:34:16;10.95;;;2.03;;
67544;SDS011;54380;47.770;11.150;2022-11-02T06:36:43;17.10;;;2.08;;
67544;SDS011;54380;47.770;11.150;2022-11-02T06:39:10;12.65;;;2.03;;
67544;SDS011;54380;47.770;11.150;2022-11-02T06:41:36;9.63;;;1.27;;
67544;SDS011;54380;47.770;11.150;2022-11-02T06:44:03;12.35;;;2.17;;
67544;SDS011;54380;47.770;11.150;2022-11-02T06:46:31;8.95;;;1.55;;
67544;SDS011;54380;47.770;11.150;2022-11-02T06:48:58;11.32;;;2.10;;
67544;SDS011;54380;47.770;11.150;2022-11-02T06:51:25;10.70;;;2.28;;
67544;SDS011;54380;47.770;11.150;2022-11-02T06:53:51;11.98;;;2.38;;
67544;SDS011;54380;47.770;11.150;2022-11-02T06:56:18;11.48;;;2.10;;
67544;SDS011;54380;47.770;11.150;2022-11-02T06:58:45;9.60;;;1.67;;
67544;SDS011;54380;47.770;11.150;2022-11-02T07:01:11;16.50;;;3.63;;
67544;SDS011;54380;47.770;11.150;2022-11-02T07:03:42;10.73;;;2.25;;
67544;SDS011;54380;47.770;11.150;2022-11-02T07:06:09;11.35;;;2.47;;
67544;SDS011;54380;47.770;11.150;2022-11-02T07:08:39;11.27;;;1.77;;
67544;SDS011;54380;47.770;11.150;2022-11-02T07:11:07;12.82;;;3.03;;
67544;SDS011;54380;47.770;11.150;2022-11-02T07:13:38;12.85;;;3.33;;
67544;SDS011;54380;47.770;11.150;2022-11-02T07:16:05;9.80;;;1.80;;
67544;SDS011;54380;47.770;11.150;2022-11-02T07:18:32;14.02;;;2.05;;
67544;SDS011;54380;47.770;11.150;2022-11-02T07:21:00;11.05;;;1.60;;
67544;SDS011;54380;47.770;11.150;2022-11-02T07:23:27;10.02;;;1.90;;
67544;SDS011;54380;47.770;11.150;2022-11-02T07:25:54;14.05;;;1.67;;
67544;SDS011;54380;47.770;11.150;2022-11-02T07:28:21;12.15;;;1.52;;
67544;SDS011;54380;47.770;11.150;2022-11-02T07:30:47;9.93;;;1.90;;
67544;SDS011;54380;47.770;11.150;2022-11-02T07:33:14;11.02;;;1.95;;
67544;SDS011;54380;47.770;11.150;2022-11-02T07:35:41;17.58;;;2.88;;
67544;SDS011;54380;47.770;11.150;2022-11-02T07:38:09;13.38;;;3.15;;
67544;SDS011;54380;47.770;11.150;2022-11-02T07:40:36;12.80;;;2.75;;
67544;SDS011;54380;47.770;11.150;2022-11-02T07:43:04;11.30;;;1.95;;
67544;SDS011;54380;47.770;11.150;2022-11-02T07:45:46;11.30;;;2.40;;
67544;SDS011;54380;47.770;11.150;2022-11-02T07:48:13;13.90;;;3.25;;
67544;SDS011;54380;47.770;11.150;2022-11-02T07:50:40;16.67;;;4.25;;
67544;SDS011;54380;47.770;11.150;2022-11-02T07:53:07;17.52;;;5.10;;
67544;SDS011;54380;47.770;11.150;2022-11-02T07:55:35;17.20;;;4.88;;
67544;SDS011;54380;47.770;11.150;2022-11-02T07:58:03;19.02;;;4.50;;
67544;SDS011;54380;47.770;11.150;2022-11-02T08:00:33;14.55;;;3.70;;
67544;SDS011;54380;47.770;11.150;2022-11-02T08:03:03;19.80;;;3.90;;
67544;SDS011;54380;47.770;11.150;2022-11-02T08:05:32;13.98;;;4.03;;
67544;SDS011;54380;47.770;11.150;2022-11-02T08:08:01;13.00;;;3.03;;
67544;SDS011;54380;47.770;11.150;2022-11-02T08:10:32;14.30;;;2.33;;
67544;SDS011;54380;47.770;11.150;2022-11-02T08:13:05;13.48;;;2.80;;
67544;SDS011;54380;47.770;11.150;2022-11-02T08:15:32;12.38;;;2.05;;
67544;SDS011;54380;47.770;11.150;2022-11-02T08:17:59;11.88;;;2.50;;
67544;SDS011;54380;47.770;11.150;2022-11-02T08:20:27;12.50;;;2.20;;
67544;SDS011;54380;47.770;11.150;2022-11-02T08:22:54;9.80;;;1.85;;
67544;SDS011;54380;47.770;11.150;2022-11-02T08:25:21;13.95;;;2.55;;
67544;SDS011;54380;47.770;11.150;2022-11-02T08:27:49;17.77;;;3.85;;
67544;SDS011;54380;47.770;11.150;2022-11-02T08:30:16;11.38;;;1.88;;
67544;SDS011;54380;47.770;11.150;2022-11-02T08:32:43;9.82;;;1.33;;
67544;SDS011;54380;47.770;11.150;2022-11-02T08:35:10;8.20;;;1.23;;
67544;SDS011;54380;47.770;11.150;2022-11-02T08:37:36;13.52;;;1.23;;
67544;SDS011;54380;47.770;11.150;2022-11-02T08:40:03;7.60;;;0.63;;
67544;SDS011;54380;47.770;11.150;2022-11-02T08:42:31;5.63;;;1.15;;
67544;SDS011;54380;47.770;11.150;2022-11-02T08:44:59;5.03;;;0.65;;
67544;SDS011;54380;47.770;11.150;2022-11-02T08:47:25;7.90;;;0.85;;
67544;SDS011;54380;47.770;11.150;2022-11-02T08:49:52;7.15;;;0.82;;
67544;SDS011;54380;47.770;11.150;2022-11-02T08:52:19;4.70;;;0.47;;
67544;SDS011;54380;47.770;11.150;2022-11-02T08:54:45;5.75;;;0.60;;
67544;SDS011;54380;47.770;11.150;2022-11-02T08:57:12;6.95;;;0.70;;
67544;SDS011;54380;47.770;11.150;2022-11-02T08:59:39;8.35;;;0.93;;
67544;SDS011;54380;47.770;11.150;2022-11-02T09:02:07;4.07;;;0.60;;
67544;SDS011;54380;47.770;11.150;2022-11-02T09:04:35;9.50;;;0.80;;
67544;SDS011;54380;47.770;11.150;2022-11-02T09:07:02;4.57;;;0.65;;
67544;SDS011;54380;47.770;11.150;2022-11-02T09:09:28;6.40;;;1.05;;
67544;SDS011;54380;47.770;11.150;2022-11-02T09:11:55;6.10;;;1.08;;
67544;SDS011;54380;47.770;11.150;2022-11-02T09:14:22;9.02;;;0.90;;
67544;SDS011;54380;47.770;11.150;2022-11-02T09:16:49;5.63;;;0.50;;
67544;SDS011;54380;47.770;11.150;2022-11-02T09:19:17;4.30;;;0.50;;
67544;SDS011;54380;47.770;11.150;2022-11-02T09:21:44;8.60;;;0.70;;
67544;SDS011;54380;47.770;11.150;2022-11-02T09:24:10;6.30;;;0.55;;
67544;SDS011;54380;47.770;11.150;2022-11-02T09:26:37;3.85;;;0.50;;
67544;SDS011;54380;47.770;11.150;2022-11-02T09:29:04;9.75;;;0.52;;
67544;SDS011;54380;47.770;11.150;2022-11-02T09:31:30;7.57;;;0.65;;
67544;SDS011;54380;47.770;11.150;2022-11-02T09:33:57;5.57;;;0.52;;
67544;SDS011;54380;47.770;11.150;2022-11-02T09:36:25;4.40;;;0.80;;
67544;SDS011;54380;47.770;11.150;2022-11-02T09:38:52;5.20;;;0.75;;
67544;SDS011;54380;47.770;11.150;2022-11-02T09:41:20;3.33;;;0.43;;
67544;SDS011;54380;47.770;11.150;2022-11-02T09:43:52;5.18;;;0.73;;
67544;SDS011;54380;47.770;11.150;2022-11-02T09:46:29;8.05;;;0.70;;
67544;SDS011;54380;47.770;11.150;2022-11-02T09:48:59;4.00;;;0.50;;
67544;SDS011;54380;47.770;11.150;2022-11-02T09:51:31;7.28;;;0.73;;
67544;SDS011;54380;47.770;11.150;2022-11-02T09:54:02;6.97;;;0.45;;
67544;SDS011;54380;47.770;11.150;2022-11-02T09:56:41;3.88;;;0.55;;
67544;SDS011;54380;47.770;11.150;2022-11-02T09:59:10;7.47;;;0.52;;
67544;SDS011;54380;47.770;11.150;2022-11-02T10:01:42;9.18;;;0.93;;
67544;SDS011;54380;47.770;11.150;2022-11-02T10:04:25;9.70;;;0.47;;
67544;SDS011;54380;47.770;11.150;2022-11-02T10:07:19;4.10;;;0.43;;
67544;SDS011;54380;47.770;11.150;2022-11-02T10:09:55;8.77;;;0.63;;
67544;SDS011;54380;47.770;11.150;2022-11-02T10:12:27;8.73;;;0.60;;
67544;SDS011;54380;47.770;11.150;2022-11-02T10:15:05;7.25;;;0.45;;
67544;SDS011;54380;47.770;11.150;2022-11-02T10:17:36;7.50;;;0.77;;
67544;SDS011;54380;47.770;11.150;2022-11-02T10:20:10;9.52;;;0.65;;
67544;SDS011;54380;47.770;11.150;2022-11-02T10:22:49;6.60;;;0.70;;
67544;SDS011;54380;47.770;11.150;2022-11-02T10:25:16;7.63;;;0.80;;
67544;SDS011;54380;47.770;11.150;2022-11-02T10:27:44;8.00;;;0.80;;
67544;SDS011;54380;47.770;11.150;2022-11-02T10:30:14;3.83;;;0.50;;
67544;SDS011;54380;47.770;11.150;2022-11-02T10:32:43;7.22;;;0.80;;
67544;SDS011;54380;47.770;11.150;2022-11-02T10:35:16;6.38;;;0.45;;
67544;SDS011;54380;47.770;11.150;2022-11-02T10:38:17;11.23;;;0.60;;
67544;SDS011;54380;47.770;11.150;2022-11-02T10:41:05;3.38;;;0.60;;
67544;SDS011;54380;47.770;11.150;2022-11-02T10:43:44;7.82;;;0.75;;
67544;SDS011;54380;47.770;11.150;2022-11-02T10:46:25;6.75;;;0.43;;
67544;SDS011;54380;47.770;11.150;2022-11-02T10:49:20;7.10;;;0.40;;
67544;SDS011;54380;47.770;11.150;2022-11-02T10:56:23;7.97;;;0.38;;
67544;SDS011;54380;47.770;11.150;2022-11-02T10:58:56;9.88;;;0.50;;
67544;SDS011;54380;47.770;11.150;2022-11-02T11:01:27;2.28;;;0.43;;
67544;SDS011;54380;47.770;11.150;2022-11-02T11:03:57;5.75;;;0.45;;
67544;SDS011;54380;47.770;11.150;2022-11-02T11:06:26;7.53;;;0.50;;
67544;SDS011;54380;47.770;11.150;2022-11-02T11:08:59;4.32;;;0.52;;
67544;SDS011;54380;47.770;11.150;2022-11-02T11:11:30;6.28;;;0.70;;
67544;SDS011;54380;47.770;11.150;2022-11-02T11:13:59;4.70;;;0.40;;
67544;SDS011;54380;47.770;11.150;2022-11-02T11:16:50;4.75;;;0.63;;
67544;SDS011;54380;47.770;11.150;2022-11-02T11:19:20;11.43;;;0.55;;
67544;SDS011;54380;47.770;11.150;2022-11-02T11:22:21;4.38;;;0.35;;
67544;SDS011;54380;47.770;11.150;2022-11-02T11:24:50;8.50;;;0.50;;
67544;SDS011;54380;47.770;11.150;2022-11-02T11:27:19;6.93;;;0.45;;
67544;SDS011;54380;47.770;11.150;2022-11-02T11:29:49;9.68;;;0.65;;
67544;SDS011;54380;47.770;11.150;2022-11-02T11:32:19;7.70;;;0.73;;
67544;SDS011;54380;47.770;11.150;2022-11-02T11:34:56;6.53;;;0.55;;
67544;SDS011;54380;47.770;11.150;2022-11-02T11:37:26;6.65;;;0.55;;
67544;SDS011;54380;47.770;11.150;2022-11-02T11:39:54;5.53;;;0.43;;
67544;SDS011;54380;47.770;11.150;2022-11-02T11:42:26;6.30;;;0.60;;
67544;SDS011;54380;47.770;11.150;2022-11-02T11:44:57;7.03;;;0.80;;
67544;SDS011;54380;47.770;11.150;2022-11-02T11:47:29;9.73;;;0.88;;
67544;SDS011;54380;47.770;11.150;2022-11-02T11:49:59;6.35;;;0.43;;
67544;SDS011;54380;47.770;11.150;2022-11-02T11:52:53;5.65;;;0.57;;
67544;SDS011;54380;47.770;11.150;2022-11-02T11:55:35;7.40;;;0.60;;
67544;SDS011;54380;47.770;11.150;2022-11-02T11:58:14;5.90;;;1.10;;
67544;SDS011;54380;47.770;11.150;2022-11-02T12:00:44;4.93;;;0.47;;
67544;SDS011;54380;47.770;11.150;2022-11-02T12:03:11;7.22;;;0.43;;
67544;SDS011;54380;47.770;11.150;2022-11-02T12:05:43;8.35;;;0.70;;
67544;SDS011;54380;47.770;11.150;2022-11-02T12:08:27;3.67;;;0.35;;
67544;SDS011;54380;47.770;11.150;2022-11-02T12:11:06;6.38;;;0.70;;
67544;SDS011;54380;47.770;11.150;2022-11-02T12:13:50;5.18;;;0.40;;
67544;SDS011;54380;47.770;11.150;2022-11-02T12:16:29;8.38;;;0.93;;
67544;SDS011;54380;47.770;11.150;2022-11-02T12:19:17;4.22;;;0.43;;
67544;SDS011;54380;47.770;11.150;2022-11-02T12:22:00;4.70;;;0.73;;
67544;SDS011;54380;47.770;11.150;2022-11-02T12:24:42;9.02;;;1.00;;
67544;SDS011;54380;47.770;11.150;2022-11-02T12:27:21;13.43;;;2.15;;
67544;SDS011;54380;47.770;11.150;2022-11-02T12:30:12;7.72;;;0.75;;
67544;SDS011;54380;47.770;11.150;2022-11-02T12:35:56;8.60;;;1.38;;
67544;SDS011;54380;47.770;11.150;2022-11-02T12:41:21;6.70;;;0.82;;
67544;SDS011;54380;47.770;11.150;2022-11-02T12:44:04;8.65;;;0.73;;
67544;SDS011;54380;47.770;11.150;2022-11-02T12:46:41;6.95;;;0.93;;
67544;SDS011;54380;47.770;11.150;2022-11-02T12:52:03;8.13;;;0.55;;
67544;SDS011;54380;47.770;11.150;2022-11-02T12:54:37;6.55;;;0.47;;
67544;SDS011;54380;47.770;11.150;2022-11-02T12:57:10;7.13;;;0.57;;
67544;SDS011;54380;47.770;11.150;2022-11-02T12:59:40;7.60;;;0.60;;
67544;SDS011;54380;47.770;11.150;2022-11-02T13:02:11;8.60;;;0.40;;
67544;SDS011;54380;47.770;11.150;2022-11-02T13:04:44;7.40;;;0.75;;
67544;SDS011;54380;47.770;11.150;2022-11-02T13:07:15;8.88;;;0.75;;
67544;SDS011;54380;47.770;11.150;2022-11-02T13:09:46;12.27;;;0.65;;
67544;SDS011;54380;47.770;11.150;2022-11-02T13:12:20;9.40;;;0.55;;
67544;SDS011;54380;47.770;11.150;2022-11-02T13:14:50;6.25;;;0.52;;
67544;SDS011;54380;47.770;11.150;2022-11-02T13:17:20;3.58;;;0.45;;
67544;SDS011;54380;47.770;11.150;2022-11-02T13:19:52;10.50;;;0.50;;
67544;SDS011;54380;47.770;11.150;2022-11-02T13:22:23;6.40;;;0.63;;
67544;SDS011;54380;47.770;11.150;2022-11-02T13:24:54;4.88;;;0.50;;
67544;SDS011;54380;47.770;11.150;2022-11-02T13:27:29;5.05;;;0.32;;
67544;SDS011;54380;47.770;11.150;2022-11-02T13:30:03;4.65;;;0.60;;
67544;SDS011;54380;47.770;11.150;2022-11-02T13:32:41;3.03;;;0.35;;
67544;SDS011;54380;47.770;11.150;2022-11-02T13:35:15;4.55;;;0.52;;
67544;SDS011;54380;47.770;11.150;2022-11-02T13:37:47;5.43;;;0.60;;
67544;SDS011;54380;47.770;11.150;2022-11-02T13:40:20;4.00;;;0.40;;
67544;SDS011;54380;47.770;11.150;2022-11-02T13:46:06;3.55;;;0.43;;
67544;SDS011;54380;47.770;11.150;2022-11-02T13:48:51;3.22;;;0.32;;
67544;SDS011;54380;47.770;11.150;2022-11-02T13:51:27;6.82;;;0.47;;
67544;SDS011;54380;47.770;11.150;2022-11-02T13:54:00;5.05;;;0.50;;
67544;SDS011;54380;47.770;11.150;2022-11-02T13:56:34;5.88;;;0.63;;
67544;SDS011;54380;47.770;11.150;2022-11-02T13:59:02;5.40;;;0.50;;
67544;SDS011;54380;47.770;11.150;2022-11-02T14:01:32;7.38;;;0.63;;
67544;SDS011;54380;47.770;11.150;2022-11-02T14:04:05;3.53;;;0.32;;
67544;SDS011;54380;47.770;11.150;2022-11-02T14:06:42;5.70;;;0.52;;
67544;SDS011;54380;47.770;11.150;2022-11-02T14:09:19;4.13;;;0.55;;
67544;SDS011;54380;47.770;11.150;2022-11-02T14:18:10;7.45;;;0.75;;
67544;SDS011;54380;47.770;11.150;2022-11-02T14:20:42;4.15;;;0.32;;
67544;SDS011;54380;47.770;11.150;2022-11-02T14:25:59;4.13;;;0.60;;
67544;SDS011;54380;47.770;11.150;2022-11-02T14:28:30;4.18;;;0.32;;
67544;SDS011;54380;47.770;11.150;2022-11-02T14:31:00;7.55;;;0.70;;
67544;SDS011;54380;47.770;11.150;2022-11-02T14:34:00;3.33;;;0.43;;
67544;SDS011;54380;47.770;11.150;2022-11-02T14:36:41;7.40;;;0.63;;
67544;SDS011;54380;47.770;11.150;2022-11-02T14:39:20;6.65;;;0.60;;
67544;SDS011;54380;47.770;11.150;2022-11-02T14:42:02;4.00;;;0.32;;
67544;SDS011;54380;47.770;11.150;2022-11-02T14:44:42;4.18;;;0.45;;
67544;SDS011;54380;47.770;11.150;2022-11-02T14:47:25;3.40;;;0.43;;
67544;SDS011;54380;47.770;11.150;2022-11-02T14:49:54;5.90;;;0.65;;
67544;SDS011;54380;47.770;11.150;2022-11-02T14:52:25;3.72;;;0.40;;
67544;SDS011;54380;47.770;11.150;2022-11-02T14:54:58;7.78;;;0.63;;
67544;SDS011;54380;47.770;11.150;2022-11-02T14:57:27;3.47;;;0.45;;
67544;SDS011;54380;47.770;11.150;2022-11-02T14:59:58;5.00;;;0.40;;
67544;SDS011;54380;47.770;11.150;2022-11-02T15:02:30;3.65;;;0.60;;
67544;SDS011;54380;47.770;11.150;2022-11-02T15:05:07;4.75;;;0.73;;
67544;SDS011;54380;47.770;11.150;2022-11-02T15:07:49;6.45;;;0.73;;
67544;SDS011;54380;47.770;11.150;2022-11-02T15:10:33;7.95;;;0.52;;
67544;SDS011;54380;47.770;11.150;2022-11-02T15:16:14;7.35;;;0.88;;
67544;SDS011;54380;47.770;11.150;2022-11-02T15:18:48;4.57;;;0.50;;
67544;SDS011;54380;47.770;11.150;2022-11-02T15:21:26;5.00;;;0.63;;
67544;SDS011;54380;47.770;11.150;2022-11-02T15:26:48;4.28;;;0.65;;
67544;SDS011;54380;47.770;11.150;2022-11-02T15:29:32;8.57;;;0.63;;
67544;SDS011;54380;47.770;11.150;2022-11-02T15:32:03;5.78;;;0.90;;
67544;SDS011;54380;47.770;11.150;2022-11-02T15:34:35;6.05;;;0.93;;